createdAt,value
2023-06-01T00:00:20.248Z,5.93
2023-06-01T00:02:48.291Z,5.30
2023-06-01T00:05:16.502Z,5.83
2023-06-01T00:07:44.760Z,8.43
2023-06-01T00:10:14.201Z,6.10
2023-06-01T00:12:43.466Z,6.00
2023-06-01T00:15:11.983Z,5.90
2023-06-01T00:17:40.270Z,5.60
2023-06-01T00:20:10.157Z,7.07
2023-06-01T00:22:40.042Z,6.00
2023-06-01T00:25:09.936Z,5.87
2023-06-01T00:27:39.857Z,5.73
2023-06-01T00:30:09.286Z,7.80
2023-06-01T00:32:37.392Z,7.33
2023-06-01T00:35:06.430Z,7.33
2023-06-01T00:37:35.261Z,10.20
2023-06-01T00:40:03.614Z,7.33
2023-06-01T00:42:32.123Z,6.33
2023-06-01T00:45:02.005Z,7.37
2023-06-01T00:47:30.183Z,8.70
2023-06-01T00:49:58.322Z,7.80
2023-06-01T00:52:27.048Z,8.37
2023-06-01T00:54:55.397Z,11.80
2023-06-01T00:57:27.724Z,10.07
2023-06-01T00:59:56.224Z,12.47
2023-06-01T01:02:25.985Z,9.67
2023-06-01T01:04:57.233Z,11.27
2023-06-01T01:07:34.534Z,17.13
2023-06-01T01:10:12.855Z,9.57
2023-06-01T01:12:49.656Z,10.00
2023-06-01T01:15:24.067Z,10.73
2023-06-01T01:18:02.767Z,11.43
2023-06-01T01:20:35.418Z,10.73
2023-06-01T01:23:19.634Z,13.37
2023-06-01T01:26:17.697Z,11.13
2023-06-01T01:28:51.106Z,9.77
2023-06-01T01:31:21.560Z,9.63
2023-06-01T01:33:52.530Z,10.67
2023-06-01T01:36:21.032Z,10.13
2023-06-01T01:38:50.088Z,10.97
2023-06-01T01:41:18.294Z,10.03
2023-06-01T01:43:48.201Z,10.67
2023-06-01T01:46:27.345Z,10.00
2023-06-01T01:49:07.120Z,10.70
2023-06-01T01:51:40.424Z,8.90
2023-06-01T01:54:10.841Z,7.57
2023-06-01T01:56:39.960Z,6.57
2023-06-01T01:59:09.938Z,6.53
2023-06-01T02:01:41.848Z,6.97
2023-06-01T02:04:10.242Z,6.37
2023-06-01T02:06:39.052Z,6.77
2023-06-01T02:09:08.852Z,7.67
2023-06-01T02:11:37.563Z,7.13
2023-06-01T02:14:06.152Z,7.13
2023-06-01T02:16:36.180Z,6.77
2023-06-01T02:19:04.436Z,7.77
2023-06-01T02:21:33.259Z,8.70
2023-06-01T02:24:05.856Z,6.67
2023-06-01T02:26:34.354Z,7.07
2023-06-01T02:29:03.823Z,9.50
2023-06-01T02:31:32.103Z,7.73
2023-06-01T02:34:01.818Z,8.60
2023-06-01T02:36:30.777Z,8.90
2023-06-01T02:38:59.328Z,7.53
2023-06-01T02:41:27.759Z,8.30
2023-06-01T02:43:55.959Z,8.43
2023-06-01T02:46:24.483Z,8.57
2023-06-01T02:48:54.005Z,7.03
2023-06-01T02:51:23.532Z,6.63
2023-06-01T02:53:52.065Z,6.67
2023-06-01T02:56:20.750Z,7.80
2023-06-01T02:58:48.816Z,7.40
2023-06-01T03:01:17.410Z,7.63
2023-06-01T03:03:46.150Z,7.40
2023-06-01T03:06:14.608Z,9.33
2023-06-01T03:08:44.076Z,8.67
2023-06-01T03:11:12.401Z,7.70
2023-06-01T03:13:40.591Z,9.70
2023-06-01T03:16:08.684Z,7.60
2023-06-01T03:18:39.113Z,7.00
2023-06-01T03:21:07.815Z,6.67
2023-06-01T03:23:36.074Z,6.77
2023-06-01T03:26:06.050Z,6.43
2023-06-01T03:28:34.181Z,6.83
2023-06-01T03:31:02.911Z,6.77
2023-06-01T03:33:31.697Z,6.33
2023-06-01T03:35:59.807Z,8.27
2023-06-01T03:38:27.994Z,5.93
2023-06-01T03:40:56.634Z,7.50
2023-06-01T03:43:26.242Z,5.37
2023-06-01T03:45:54.426Z,7.97
2023-06-01T03:48:22.819Z,6.20
2023-06-01T03:50:51.129Z,6.77
2023-06-01T03:53:19.619Z,6.80
2023-06-01T03:55:49.523Z,7.07
2023-06-01T03:58:20.669Z,7.23
2023-06-01T04:00:51.089Z,9.83
2023-06-01T04:03:22.774Z,9.27
2023-06-01T04:05:52.597Z,10.13
2023-06-01T04:08:22.983Z,9.30
2023-06-01T04:10:51.353Z,7.17
2023-06-01T04:13:19.674Z,10.93
2023-06-01T04:15:49.850Z,8.10
2023-06-01T04:18:18.151Z,9.63
2023-06-01T04:20:46.208Z,11.30
2023-06-01T04:23:14.517Z,12.90
2023-06-01T04:25:45.402Z,9.07
2023-06-01T04:28:13.910Z,11.83
2023-06-01T04:30:42.149Z,7.57
2023-06-01T04:33:11.705Z,12.77
2023-06-01T04:35:39.869Z,8.37
2023-06-01T04:38:10.238Z,8.50
2023-06-01T04:40:38.307Z,7.70
2023-06-01T04:43:08.328Z,8.70
2023-06-01T04:45:39.678Z,9.03
2023-06-01T04:48:09.990Z,8.33
2023-06-01T04:50:40.052Z,7.67
2023-06-01T04:53:08.174Z,7.97
2023-06-01T04:55:36.493Z,10.87
2023-06-01T04:58:06.226Z,10.13
2023-06-01T05:00:34.688Z,9.27
2023-06-01T05:03:04.165Z,12.03
2023-06-01T05:05:32.596Z,11.53
2023-06-01T05:08:02.280Z,9.43
2023-06-01T05:10:30.404Z,11.47
2023-06-01T05:12:58.482Z,9.43
2023-06-01T05:15:28.627Z,10.57
2023-06-01T05:17:56.846Z,10.93
2023-06-01T05:20:24.940Z,9.33
2023-06-01T05:22:53.078Z,10.73
2023-06-01T05:25:22.633Z,11.10
2023-06-01T05:27:50.655Z,11.70
2023-06-01T05:30:18.666Z,10.93
2023-06-01T05:32:47.062Z,10.23
2023-06-01T05:35:15.368Z,10.10
2023-06-01T05:37:45.433Z,10.50
2023-06-01T05:40:15.379Z,12.07
2023-06-01T05:42:44.872Z,10.87
2023-06-01T05:45:12.994Z,10.53
2023-06-01T05:47:41.086Z,17.83
2023-06-01T05:50:09.641Z,11.40
2023-06-01T05:52:37.783Z,11.40
2023-06-01T05:55:07.213Z,12.77
2023-06-01T05:57:35.310Z,10.83
2023-06-01T06:00:09.422Z,11.20
2023-06-01T06:02:37.616Z,13.10
2023-06-01T06:05:07.169Z,12.77
2023-06-01T06:07:35.367Z,11.07
2023-06-01T06:10:03.652Z,12.33
2023-06-01T06:12:32.457Z,15.20
2023-06-01T06:15:01.752Z,14.10
2023-06-01T06:17:32.360Z,11.17
2023-06-01T06:20:01.134Z,10.53
2023-06-01T06:22:29.214Z,12.60
2023-06-01T06:24:57.600Z,10.97
2023-06-01T06:27:25.852Z,12.27
2023-06-01T06:29:54.248Z,11.17
2023-06-01T06:32:22.669Z,12.83
2023-06-01T06:34:52.423Z,10.97
2023-06-01T06:37:20.866Z,13.33
2023-06-01T06:39:49.175Z,13.50
2023-06-01T06:42:17.936Z,12.77
2023-06-01T06:44:46.266Z,12.40
2023-06-01T06:47:16.855Z,13.37
2023-06-01T06:49:45.377Z,13.30
2023-06-01T06:52:14.987Z,12.27
2023-06-01T06:54:43.052Z,12.70
2023-06-01T06:57:11.784Z,14.50
2023-06-01T06:59:39.843Z,16.50
2023-06-01T07:02:08.486Z,16.83
2023-06-01T07:04:36.911Z,17.57
2023-06-01T07:07:05.763Z,16.93
2023-06-01T07:09:35.683Z,16.70
2023-06-01T07:12:03.705Z,17.90
2023-06-01T07:14:31.768Z,16.50
2023-06-01T07:16:59.925Z,18.53
2023-06-01T07:19:33.957Z,20.33
2023-06-01T07:22:02.593Z,24.83
2023-06-01T07:24:31.004Z,25.17
2023-06-01T07:27:01.193Z,22.37
2023-06-01T07:29:29.589Z,25.60
2023-06-01T07:31:59.174Z,21.37
2023-06-01T07:34:29.277Z,26.03
2023-06-01T07:37:15.342Z,24.43
2023-06-01T07:39:45.024Z,21.63
2023-06-01T07:42:16.676Z,24.50
2023-06-01T07:44:46.249Z,21.57
2023-06-01T07:47:14.784Z,24.70
2023-06-01T07:49:42.900Z,20.90
2023-06-01T07:52:11.820Z,25.63
2023-06-01T07:54:40.025Z,20.65
2023-06-01T07:57:09.487Z,22.52
2023-06-01T07:59:40.483Z,21.25
2023-06-01T08:02:08.910Z,24.77
2023-06-01T08:04:39.024Z,22.15
2023-06-01T08:07:09.934Z,24.50
2023-06-01T08:09:39.551Z,24.75
2023-06-01T08:12:09.245Z,25.33
2023-06-01T08:14:38.985Z,31.23
2023-06-01T08:17:08.584Z,31.85
2023-06-01T08:19:37.729Z,31.23
2023-06-01T08:22:08.395Z,26.88
2023-06-01T08:24:37.401Z,26.65
2023-06-01T08:27:19.004Z,31.35
2023-06-01T08:29:49.517Z,28.92
2023-06-01T08:32:19.492Z,28.30
2023-06-01T08:34:48.339Z,26.65
2023-06-01T08:37:18.060Z,21.73
2023-06-01T08:39:46.875Z,23.13
2023-06-01T08:42:22.223Z,24.48
2023-06-01T08:44:56.690Z,28.27
2023-06-01T08:47:27.484Z,23.95
2023-06-01T08:49:56.243Z,22.60
2023-06-01T08:52:30.221Z,24.80
2023-06-01T08:55:00.416Z,25.75
2023-06-01T08:57:29.725Z,24.63
2023-06-01T09:00:00.550Z,26.83
2023-06-01T09:02:29.623Z,19.20
2023-06-01T09:04:57.773Z,21.55
2023-06-01T09:07:26.563Z,20.42
2023-06-01T09:09:54.722Z,21.27
2023-06-01T09:12:27.041Z,21.42
2023-06-01T09:15:12.153Z,19.33
2023-06-01T09:17:41.365Z,20.77
2023-06-01T09:20:15.066Z,18.48
2023-06-01T09:22:44.872Z,17.33
2023-06-01T09:25:15.468Z,17.80
2023-06-01T09:27:48.173Z,19.05
2023-06-01T09:30:19.806Z,18.02
2023-06-01T09:32:52.364Z,21.95
2023-06-01T09:35:39.937Z,17.63
2023-06-01T09:38:08.151Z,16.20
2023-06-01T09:40:36.687Z,17.70
2023-06-01T09:43:05.057Z,17.42
2023-06-01T09:45:34.877Z,19.50
2023-06-01T09:48:19.835Z,14.90
2023-06-01T09:50:48.411Z,14.93
2023-06-01T09:53:18.327Z,15.30
2023-06-01T09:56:00.740Z,12.70
2023-06-01T09:58:30.078Z,12.95
2023-06-01T10:01:05.114Z,13.10
2023-06-01T10:03:33.563Z,13.98
2023-06-01T10:06:03.718Z,14.40
2023-06-01T10:08:34.069Z,12.05
2023-06-01T10:11:02.188Z,10.85
2023-06-01T10:13:32.646Z,13.38
2023-06-01T10:16:02.886Z,9.00
2023-06-01T10:18:32.196Z,11.95
2023-06-01T10:21:01.276Z,9.57
2023-06-01T10:23:31.633Z,7.88
2023-06-01T10:26:07.493Z,9.00
2023-06-01T10:28:38.104Z,7.85
2023-06-01T10:31:39.484Z,10.43
2023-06-01T10:34:10.654Z,8.13
2023-06-01T10:37:16.687Z,7.75
2023-06-01T10:39:46.028Z,8.00
2023-06-01T10:42:39.962Z,10.70
2023-06-01T10:45:38.653Z,11.35
2023-06-01T10:48:11.377Z,9.70
2023-06-01T10:50:40.574Z,13.55
2023-06-01T10:53:31.493Z,10.00
2023-06-01T10:56:23.385Z,8.43
2023-06-01T11:01:45.004Z,6.22
2023-06-01T11:04:15.983Z,6.00
2023-06-01T11:06:45.585Z,6.25
2023-06-01T11:09:17.144Z,5.90
2023-06-01T11:12:03.779Z,7.43
2023-06-01T11:14:34.989Z,7.20
2023-06-01T11:17:30.157Z,9.73
2023-06-01T11:20:06.223Z,7.45
2023-06-01T11:22:39.978Z,14.25
2023-06-01T11:25:10.506Z,10.07
2023-06-01T11:27:38.851Z,9.57
2023-06-01T11:30:08.252Z,6.55
2023-06-01T11:32:42.946Z,5.70
2023-06-01T11:35:24.101Z,9.23
2023-06-01T11:37:57.025Z,6.70
2023-06-01T11:40:27.493Z,8.40
2023-06-01T11:42:58.048Z,7.27
2023-06-01T11:45:28.503Z,9.37
2023-06-01T11:47:56.768Z,9.10
2023-06-01T11:50:28.485Z,5.57
2023-06-01T11:52:59.533Z,6.97
2023-06-01T11:55:27.690Z,11.60
2023-06-01T11:57:55.920Z,8.60
2023-06-01T12:00:24.523Z,11.03
2023-06-01T12:03:08.156Z,11.37
2023-06-01T12:05:44.411Z,8.37
2023-06-01T12:08:15.738Z,6.87
2023-06-01T12:10:46.294Z,5.30
2023-06-01T12:13:14.903Z,6.53
2023-06-01T12:15:43.303Z,7.60
2023-06-01T12:18:11.916Z,5.60
2023-06-01T12:20:43.616Z,6.13
2023-06-01T12:23:17.827Z,6.57
2023-06-01T12:25:52.768Z,5.27
2023-06-01T12:28:22.513Z,4.63
2023-06-01T12:30:51.105Z,5.20
2023-06-01T12:33:35.872Z,7.27
2023-06-01T12:36:07.466Z,7.30
2023-06-01T12:38:39.169Z,13.27
2023-06-01T12:41:10.912Z,6.60
2023-06-01T12:43:39.407Z,5.07
2023-06-01T12:46:08.373Z,6.93
2023-06-01T12:48:38.622Z,6.47
2023-06-01T12:51:09.419Z,6.13
2023-06-01T12:53:37.735Z,10.50
2023-06-01T12:56:06.081Z,9.23
2023-06-01T12:58:34.605Z,8.50
2023-06-01T13:01:02.960Z,6.57
2023-06-01T13:03:31.848Z,8.10
2023-06-01T13:06:01.328Z,7.80
2023-06-01T13:08:31.322Z,11.90
2023-06-01T13:10:59.330Z,7.40
2023-06-01T13:13:28.272Z,7.47
2023-06-01T13:15:56.687Z,7.00
2023-06-01T13:18:25.659Z,6.73
2023-06-01T13:20:54.115Z,6.13
2023-06-01T13:23:22.367Z,8.07
2023-06-01T13:25:52.052Z,5.73
2023-06-01T13:28:20.554Z,4.70
2023-06-01T13:30:49.117Z,5.93
2023-06-01T13:33:17.495Z,4.80
2023-06-01T13:35:46.380Z,4.37
2023-06-01T13:38:14.599Z,4.50
2023-06-01T13:40:42.919Z,4.80
2023-06-01T13:43:13.733Z,3.80
2023-06-01T13:45:42.187Z,5.33
2023-06-01T13:48:13.719Z,4.80
2023-06-01T13:50:44.188Z,4.50
2023-06-01T13:53:12.642Z,4.03
2023-06-01T13:55:41.099Z,5.80
2023-06-01T13:58:09.544Z,3.30
2023-06-01T14:00:39.440Z,6.80
2023-06-01T14:03:09.069Z,3.20
2023-06-01T14:05:49.273Z,3.90
2023-06-01T14:08:20.365Z,5.97
2023-06-01T14:10:48.610Z,4.13
2023-06-01T14:13:17.149Z,4.30
2023-06-01T14:15:46.998Z,4.17
2023-06-01T14:18:15.320Z,5.57
2023-06-01T14:20:44.245Z,4.97
2023-06-01T14:23:13.056Z,4.47
2023-06-01T14:25:41.416Z,5.90
2023-06-01T14:28:09.616Z,6.33
2023-06-01T14:30:38.583Z,6.30
2023-06-01T14:33:08.346Z,5.27
2023-06-01T14:35:36.533Z,4.07
2023-06-01T14:38:04.731Z,5.33
2023-06-01T14:40:33.368Z,4.47
2023-06-01T14:43:01.574Z,5.43
2023-06-01T14:45:29.830Z,6.97
2023-06-01T14:47:58.014Z,3.97
2023-06-01T14:50:27.895Z,4.27
2023-06-01T14:53:00.968Z,5.17
2023-06-01T14:55:29.641Z,4.67
2023-06-01T14:57:57.877Z,4.73
2023-06-01T15:00:29.166Z,4.97
2023-06-01T15:02:57.582Z,5.30
2023-06-01T15:05:27.533Z,3.77
2023-06-01T15:07:55.973Z,6.50
2023-06-01T15:10:24.110Z,4.60
2023-06-01T15:12:52.799Z,4.33
2023-06-01T15:15:21.407Z,6.57
2023-06-01T15:17:51.823Z,4.23
2023-06-01T15:20:19.976Z,5.37
2023-06-01T15:22:49.923Z,5.80
2023-06-01T15:25:18.377Z,5.07
2023-06-01T15:27:46.688Z,4.03
2023-06-01T15:30:15.410Z,4.07
2023-06-01T15:32:46.238Z,4.73
2023-06-01T15:35:19.240Z,6.33
2023-06-01T15:37:47.318Z,5.53
2023-06-01T15:40:17.920Z,4.67
2023-06-01T15:42:46.280Z,5.10
2023-06-01T15:45:14.879Z,4.63
2023-06-01T15:47:43.066Z,6.80
2023-06-01T15:50:12.074Z,4.70
2023-06-01T15:52:40.068Z,7.03
2023-06-01T15:55:09.200Z,7.47
2023-06-01T15:57:39.027Z,6.40
2023-06-01T16:00:09.362Z,6.73
2023-06-01T16:02:39.837Z,7.47
2023-06-01T16:05:08.728Z,4.73
2023-06-01T16:07:36.843Z,5.17
2023-06-01T16:10:05.654Z,6.43
2023-06-01T16:12:33.891Z,4.30
2023-06-01T16:15:03.649Z,4.80
2023-06-01T16:17:35.259Z,6.33
2023-06-01T16:20:04.104Z,6.27
2023-06-01T16:22:32.651Z,6.67
2023-06-01T16:25:00.970Z,5.30
2023-06-01T16:27:28.998Z,6.40
2023-06-01T16:29:58.175Z,6.60
2023-06-01T16:32:28.357Z,7.17
2023-06-01T16:34:56.602Z,5.57
2023-06-01T16:37:25.038Z,6.60
2023-06-01T16:39:53.333Z,5.90
2023-06-01T16:42:21.669Z,7.27
2023-06-01T16:44:49.659Z,6.30
2023-06-01T16:47:17.861Z,5.20
2023-06-01T16:49:47.735Z,6.40
2023-06-01T16:52:16.315Z,7.83
2023-06-01T16:54:44.452Z,7.70
2023-06-01T16:57:12.564Z,5.60
2023-06-01T16:59:40.685Z,5.53
2023-06-01T17:02:09.571Z,8.63
2023-06-01T17:04:37.912Z,4.67
2023-06-01T17:07:08.308Z,6.60
2023-06-01T17:09:36.395Z,8.33
2023-06-01T17:12:05.342Z,5.33
2023-06-01T17:14:33.605Z,5.73
2023-06-01T17:17:02.057Z,5.30
2023-06-01T17:19:31.121Z,6.57
2023-06-01T17:21:59.296Z,5.27
2023-06-01T17:24:29.571Z,5.60
2023-06-01T17:26:57.519Z,8.60
2023-06-01T17:29:26.520Z,8.37
2023-06-01T17:31:54.784Z,8.43
2023-06-01T17:34:23.032Z,12.83
2023-06-01T17:36:51.182Z,7.97
2023-06-01T17:39:22.831Z,8.23
2023-06-01T17:41:53.394Z,6.17
2023-06-01T17:44:22.618Z,8.27
2023-06-01T17:46:50.809Z,7.37
2023-06-01T17:49:19.399Z,6.57
2023-06-01T17:51:47.665Z,6.23
2023-06-01T17:54:15.822Z,5.30
2023-06-01T17:56:44.111Z,10.20
2023-06-01T17:59:15.272Z,6.20
2023-06-01T18:01:43.586Z,5.10
2023-06-01T18:04:11.703Z,7.47
2023-06-01T18:06:40.065Z,7.23
2023-06-01T18:09:08.105Z,9.17
2023-06-01T18:11:36.926Z,7.10
2023-06-01T18:14:05.388Z,6.27
2023-06-01T18:16:35.209Z,6.77
2023-06-01T18:19:03.453Z,9.40
2023-06-01T18:21:32.206Z,7.47
2023-06-01T18:24:00.223Z,6.77
2023-06-01T18:26:28.658Z,7.53
2023-06-01T18:28:59.046Z,6.53
2023-06-01T18:31:27.618Z,11.07
2023-06-01T18:33:57.319Z,8.57
2023-06-01T18:36:28.670Z,7.53
2023-06-01T18:38:57.103Z,7.00
2023-06-01T18:41:25.863Z,6.63
2023-06-01T18:43:53.938Z,6.70
2023-06-01T18:46:22.951Z,5.90
2023-06-01T18:48:51.427Z,9.13
2023-06-01T18:51:21.997Z,7.13
2023-06-01T18:53:50.617Z,5.93
2023-06-01T18:56:19.316Z,8.10
2023-06-01T18:58:47.938Z,8.13
2023-06-01T19:01:19.157Z,8.47
2023-06-01T19:03:51.560Z,7.00
2023-06-01T19:06:21.557Z,7.07
2023-06-01T19:08:49.638Z,7.67
2023-06-01T19:11:18.182Z,6.87
2023-06-01T19:13:48.329Z,7.47
2023-06-01T19:16:21.894Z,5.87
2023-06-01T19:18:51.753Z,8.13
2023-06-01T19:21:22.743Z,8.63
2023-06-01T19:23:53.129Z,8.93
2023-06-01T19:26:26.604Z,7.47
2023-06-01T19:29:01.805Z,13.23
2023-06-01T19:31:34.232Z,8.80
2023-06-01T19:34:03.784Z,9.70
2023-06-01T19:36:56.621Z,7.53
2023-06-01T19:39:36.027Z,10.20
2023-06-01T19:42:08.646Z,6.83
2023-06-01T19:44:37.729Z,8.33
2023-06-01T19:47:08.714Z,9.83
2023-06-01T19:49:38.771Z,9.60
2023-06-01T19:52:11.104Z,7.87
2023-06-01T19:54:40.167Z,8.33
2023-06-01T19:57:08.868Z,6.63
2023-06-01T19:59:39.222Z,7.07
2023-06-01T20:02:09.943Z,6.17
2023-06-01T20:04:38.335Z,7.20
2023-06-01T20:07:09.150Z,9.43
2023-06-01T20:09:37.225Z,9.33
2023-06-01T20:12:07.348Z,8.17
2023-06-01T20:14:35.993Z,10.50
2023-06-01T20:17:04.927Z,6.30
2023-06-01T20:19:33.909Z,7.47
2023-06-01T20:22:02.467Z,7.87
2023-06-01T20:24:33.487Z,12.53
2023-06-01T20:27:03.605Z,6.90
2023-06-01T20:29:34.115Z,7.50
2023-06-01T20:32:03.610Z,7.90
2023-06-01T20:34:33.809Z,9.33
2023-06-01T20:37:02.309Z,8.23
2023-06-01T20:39:32.060Z,7.10
2023-06-01T20:42:01.235Z,6.83
2023-06-01T20:44:29.930Z,10.40
2023-06-01T20:46:58.840Z,6.03
2023-06-01T20:49:28.910Z,8.17
2023-06-01T20:51:57.622Z,7.07
2023-06-01T20:54:28.322Z,6.50
2023-06-01T20:56:58.993Z,6.73
2023-06-01T20:59:28.507Z,7.20
2023-06-01T21:01:58.454Z,8.87
2023-06-01T21:04:28.491Z,7.03
2023-06-01T21:06:57.796Z,8.20
2023-06-01T21:09:26.494Z,7.77
2023-06-01T21:11:56.388Z,11.90
2023-06-01T21:14:26.757Z,6.33
2023-06-01T21:16:54.972Z,8.47
2023-06-01T21:19:23.429Z,6.73
2023-06-01T21:21:51.836Z,7.73
2023-06-01T21:24:20.070Z,6.60
2023-06-01T21:26:48.411Z,6.97
2023-06-01T21:29:16.775Z,7.70
2023-06-01T21:31:46.286Z,8.30
2023-06-01T21:34:16.853Z,8.60
2023-06-01T21:36:45.168Z,7.33
2023-06-01T21:39:13.708Z,6.50
2023-06-01T21:41:42.390Z,8.90
2023-06-01T21:44:10.855Z,8.70
2023-06-01T21:46:39.128Z,7.57
2023-06-01T21:49:09.493Z,7.00
2023-06-01T21:51:38.077Z,6.57
2023-06-01T21:54:07.064Z,8.27
2023-06-01T21:56:37.111Z,6.67
2023-06-01T21:59:06.280Z,8.33
2023-06-01T22:01:34.721Z,9.80
2023-06-01T22:04:03.167Z,7.77
2023-06-01T22:06:32.978Z,8.10
2023-06-01T22:09:01.281Z,6.37
2023-06-01T22:11:29.706Z,6.33
2023-06-01T22:13:58.206Z,7.33
2023-06-01T22:16:26.611Z,7.03
2023-06-01T22:18:55.010Z,5.53
2023-06-01T22:21:23.822Z,6.27
2023-06-01T22:23:53.876Z,6.13
2023-06-01T22:26:22.201Z,8.90
2023-06-01T22:28:50.817Z,8.63
2023-06-01T22:31:19.041Z,6.60
2023-06-01T22:33:47.355Z,5.40
2023-06-01T22:36:15.821Z,6.63
2023-06-01T22:38:44.872Z,6.63
2023-06-01T22:41:14.676Z,6.30
2023-06-01T22:43:43.263Z,8.00
2023-06-01T22:46:11.550Z,6.40
2023-06-01T22:48:40.354Z,6.17
2023-06-01T22:51:08.477Z,6.63
2023-06-01T22:53:37.011Z,9.93
2023-06-01T22:56:06.794Z,7.80
2023-06-01T22:58:37.081Z,11.30
2023-06-01T23:01:05.967Z,7.93
2023-06-01T23:03:34.540Z,6.77
2023-06-01T23:06:04.807Z,9.80
2023-06-01T23:08:33.813Z,7.30
2023-06-01T23:11:02.669Z,6.80
2023-06-01T23:13:36.703Z,10.23
2023-06-01T23:16:08.124Z,8.20
2023-06-01T23:18:37.117Z,8.07
2023-06-01T23:21:05.651Z,9.17
2023-06-01T23:23:34.546Z,12.27
2023-06-01T23:26:03.289Z,8.30
2023-06-01T23:28:31.671Z,9.47
2023-06-01T23:31:00.154Z,12.20
2023-06-01T23:33:31.035Z,10.47
2023-06-01T23:35:59.170Z,11.37
2023-06-01T23:38:30.485Z,10.20
2023-06-01T23:40:59.518Z,9.07
2023-06-01T23:43:28.103Z,11.77
2023-06-01T23:45:59.044Z,8.90
2023-06-01T23:48:27.782Z,11.10
2023-06-01T23:50:57.508Z,9.37
2023-06-01T23:53:25.786Z,9.37
2023-06-01T23:55:54.121Z,9.47
2023-06-01T23:58:22.665Z,10.47
